Time;durP1;ratioP1;P1;durP2;ratioP2;P2;SDS_P1;SDS_P2;PMS_P1;PMS_P2;Temp;Humidity;BMP_temperature;BMP_pressure;BME280_temperature;BME280_humidity;BME280_pressure;Samples;Min_cycle;Max_cycle;Signal;HPM_P1;HPM_P2
2023/10/12 00:00:28;;;;;;;5.45;2.28;;;;;;;15.74;68.23;100020.72;4461788;32;33822;-82
2023/10/12 00:02:59;;;;;;;4.20;2.30;;;;;;;15.41;69.63;100012.03;4464905;32;33232;-82
2023/10/12 00:05:29;;;;;;;4.62;2.25;;;;;;;15.44;69.94;100004.09;4465200;32;33628;-83
2023/10/12 00:07:59;;;;;;;5.23;2.53;;;;;;;15.45;69.73;100001.44;4462973;32;34031;-83
2023/10/12 00:10:40;;;;;;;4.22;2.28;;;;;;;15.41;69.69;99997.19;4466280;32;34436;-81
2023/10/12 00:13:12;;;;;;;5.75;2.30;;;;;;;15.50;69.53;99996.94;4479448;32;34248;-83
2023/10/12 00:15:45;;;;;;;5.45;2.83;;;;;;;15.31;70.06;99996.59;4467014;32;33767;-82
2023/10/12 00:18:17;;;;;;;5.05;2.80;;;;;;;15.27;70.27;99994.09;4468607;32;34777;-82
2023/10/12 00:20:51;;;;;;;7.05;2.60;;;;;;;15.31;69.99;99982.66;4478268;32;33798;-82
2023/10/12 00:23:20;;;;;;;5.62;2.72;;;;;;;15.43;69.73;99991.94;4478557;32;33998;-83
2023/10/12 00:25:54;;;;;;;5.55;2.87;;;;;;;15.60;68.67;99987.06;4478610;32;34040;-82
2023/10/12 00:28:29;;;;;;;6.05;3.12;;;;;;;15.31;69.61;99980.91;4468576;32;34840;-84
2023/10/12 00:31:04;;;;;;;3.75;2.45;;;;;;;15.37;69.59;99987.75;4462625;32;33699;-81
2023/10/12 00:33:34;;;;;;;7.55;3.08;;;;;;;15.45;69.30;99980.53;4477665;32;33430;-82
2023/10/12 00:36:04;;;;;;;4.90;2.80;;;;;;;15.06;70.72;99983.34;4478309;32;33130;-82
2023/10/12 00:38:34;;;;;;;5.65;2.72;;;;;;;15.18;70.09;99973.47;4478577;32;34002;-81
2023/10/12 00:41:04;;;;;;;4.00;2.25;;;;;;;15.39;69.45;99979.84;4478159;32;33344;-83
2023/10/12 00:43:36;;;;;;;;;;;;;;;14.90;71.01;99971.59;4483789;32;33825;-82
2023/10/12 00:46:21;;;;;;;5.95;3.10;;;;;;;14.88;71.22;99969.03;4474647;32;33797;-81
2023/10/12 00:48:57;;;;;;;6.05;3.40;;;;;;;15.18;70.07;99970.84;4464222;32;33845;-83
2023/10/12 00:51:30;;;;;;;4.93;3.03;;;;;;;15.07;70.48;99971.13;4474429;32;33414;-82
2023/10/12 00:54:00;;;;;;;6.20;3.05;;;;;;;14.83;71.28;99970.03;4466128;32;33455;-81
2023/10/12 00:56:30;;;;;;;7.15;2.92;;;;;;;14.64;72.54;99964.41;4464853;32;33840;-81
2023/10/12 00:59:00;;;;;;;;;;;;;;;14.76;72.15;99968.47;4467928;32;34628;-82
2023/10/12 01:01:31;;;;;;;8.10;3.50;;;;;;;15.08;70.61;99971.09;4468270;32;34395;-82
2023/10/12 01:04:01;;;;;;;5.93;2.95;;;;;;;15.09;70.09;99970.19;4467689;32;33651;-82
2023/10/12 01:06:32;;;;;;;6.55;3.62;;;;;;;15.22;69.56;99956.78;4467564;32;33959;-81
2023/10/12 01:09:18;;;;;;;7.37;3.30;;;;;;;15.41;68.06;99957.97;4468942;32;33751;-82
2023/10/12 01:11:53;;;;;;;6.75;3.50;;;;;;;15.03;69.68;99957.31;4462946;32;33387;-82
2023/10/12 01:14:26;;;;;;;9.75;3.50;;;;;;;15.07;69.31;99955.44;4474725;32;34024;-83
2023/10/12 01:16:58;;;;;;;5.43;2.87;;;;;;;15.25;68.48;99951.50;4464611;32;33825;-82
2023/10/12 01:19:33;;;;;;;4.53;2.60;;;;;;;15.10;68.86;99957.97;4463594;32;33768;-82
2023/10/12 01:22:12;;;;;;;5.87;3.67;;;;;;;15.06;68.87;99952.00;4468426;32;34629;-82
2023/10/12 01:24:57;;;;;;;7.28;3.47;;;;;;;14.96;69.44;99949.69;4468011;32;33191;-82
2023/10/12 01:27:27;;;;;;;9.05;3.70;;;;;;;14.98;69.48;99948.75;4468107;32;34677;-83
2023/10/12 01:29:59;;;;;;;4.60;2.97;;;;;;;15.00;68.94;99938.22;4469326;32;34121;-82
2023/10/12 01:32:28;;;;;;;6.03;3.45;;;;;;;15.09;68.71;99937.97;4471106;32;34415;-81
2023/10/12 01:35:02;;;;;;;6.62;3.20;;;;;;;15.02;68.60;99939.06;4468263;32;33487;-83
2023/10/12 01:37:47;;;;;;;6.30;3.60;;;;;;;14.91;68.79;99936.75;4468138;32;33797;-83
2023/10/12 01:40:21;;;;;;;6.40;3.45;;;;;;;14.85;69.51;99945.59;4467671;32;33988;-81
2023/10/12 01:42:51;;;;;;;6.72;3.40;;;;;;;14.85;69.41;99942.97;4468185;32;33649;-83
2023/10/12 01:45:32;;;;;;;6.70;3.47;;;;;;;14.93;68.47;99940.16;4464873;32;33522;-81
2023/10/12 01:48:09;;;;;;;6.15;3.28;;;;;;;14.74;69.25;99934.59;4470780;32;33975;-83
2023/10/12 01:50:41;;;;;;;7.65;4.03;;;;;;;14.70;69.52;99932.94;4465752;32;33937;-81
2023/10/12 01:53:24;;;;;;;12.15;4.85;;;;;;;14.79;69.03;99942.31;4466888;32;34809;-83
2023/10/12 01:55:54;;;;;;;6.25;3.10;;;;;;;14.78;69.08;99937.94;4478064;32;34157;-82
2023/10/12 01:58:27;;;;;;;8.75;4.28;;;;;;;14.68;69.28;99940.81;4478784;32;34768;-82
2023/10/12 02:01:04;;;;;;;7.75;3.83;;;;;;;14.68;69.45;99935.56;4466388;32;34377;-82
2023/10/12 02:03:37;;;;;;;8.05;4.03;;;;;;;14.73;68.78;99940.69;4473408;32;33880;-83
2023/10/12 02:06:13;;;;;;;5.80;3.33;;;;;;;14.83;68.56;99939.53;4473094;32;32970;-83
2023/10/12 02:08:52;;;;;;;7.10;3.58;;;;;;;14.68;69.47;99939.94;4474769;32;34069;-81
2023/10/12 02:11:37;;;;;;;7.32;4.07;;;;;;;14.58;69.33;99934.09;4479060;32;34651;-81
2023/10/12 02:14:10;;;;;;;9.43;4.35;;;;;;;14.54;69.43;99940.28;4467425;32;33844;-83
2023/10/12 02:16:39;;;;;;;7.15;3.60;;;;;;;14.56;69.64;99935.91;4477402;32;33525;-84
2023/10/12 02:19:08;;;;;;;6.95;3.78;;;;;;;14.58;69.31;99938.47;4480889;32;34116;-81
2023/10/12 02:21:40;;;;;;;7.32;4.03;;;;;;;14.60;69.37;99934.09;4468624;32;34041;-82
2023/10/12 02:24:14;;;;;;;5.22;3.15;;;;;;;14.59;69.06;99943.62;4462666;32;33660;-83
2023/10/12 02:26:52;;;;;;;7.32;3.50;;;;;;;14.70;69.00;99949.47;4467004;32;33926;-81
2023/10/12 02:29:22;;;;;;;6.07;3.62;;;;;;;14.69;68.83;99947.75;4462583;32;33377;-82
2023/10/12 02:32:03;;;;;;;7.15;3.65;;;;;;;14.71;68.77;99938.13;4462795;32;34146;-82
2023/10/12 02:34:41;;;;;;;7.40;4.10;;;;;;;14.67;68.80;99938.25;4468207;32;34008;-83
2023/10/12 02:37:19;;;;;;;6.18;3.87;;;;;;;14.67;68.80;99941.72;4478208;32;33633;-81
2023/10/12 02:39:53;;;;;;;7.05;3.85;;;;;;;14.67;68.65;99939.09;4477967;32;34488;-82
2023/10/12 02:42:38;;;;;;;6.70;4.05;;;;;;;14.66;68.78;99941.75;4471147;32;34029;-83
2023/10/12 02:45:16;;;;;;;8.18;3.80;;;;;;;14.35;69.87;99937.25;4465795;32;33984;-81
2023/10/12 02:47:48;;;;;;;8.85;4.00;;;;;;;14.54;69.39;99936.84;4479114;32;33543;-81
2023/10/12 02:50:27;;;;;;;6.18;3.67;;;;;;;14.56;69.10;99935.03;4463106;32;33852;-82
2023/10/12 02:52:56;;;;;;;7.87;4.47;;;;;;;14.47;69.50;99936.09;4462976;32;34192;-84
2023/10/12 02:55:34;;;;;;;5.57;3.35;;;;;;;14.48;69.66;99932.59;4477041;32;33922;-83
2023/10/12 02:58:17;;;;;;;8.95;4.07;;;;;;;14.50;69.37;99934.28;4463569;32;34066;-83
2023/10/12 03:00:47;;;;;;;9.82;3.55;;;;;;;14.65;68.73;99937.44;4467159;32;33877;-82
2023/10/12 03:03:23;;;;;;;8.02;4.30;;;;;;;14.49;69.01;99931.69;4464482;32;33295;-81
2023/10/12 03:05:58;;;;;;;7.70;4.07;;;;;;;14.33;70.07;99927.75;4463556;32;33125;-82
2023/10/12 03:08:33;;;;;;;7.25;3.58;;;;;;;14.51;68.98;99919.47;4463242;32;33125;-83
2023/10/12 03:11:12;;;;;;;8.32;3.83;;;;;;;14.49;69.08;99924.72;4469033;32;32768;-83
2023/10/12 03:13:54;;;;;;;11.45;4.35;;;;;;;14.40;69.28;99922.38;4468854;32;34739;-81
2023/10/12 03:16:24;;;;;;;9.40;4.47;;;;;;;14.33;69.50;99918.19;4466445;32;33608;-83
2023/10/12 03:18:58;;;;;;;8.93;5.10;;;;;;;14.43;69.12;99924.03;4478963;32;33273;-81
2023/10/12 03:21:33;;;;;;;9.05;4.95;;;;;;;14.38;69.24;99925.91;4479176;32;33415;-81
2023/10/12 03:24:05;;;;;;;12.25;5.10;;;;;;;14.44;69.22;99923.13;4478916;32;34001;-81
2023/10/12 03:26:36;;;;;;;8.80;4.28;;;;;;;14.43;68.69;99930.09;4474478;32;34538;-82
2023/10/12 03:29:18;;;;;;;11.75;5.28;;;;;;;14.39;69.19;99923.25;4480916;32;32499;-83
2023/10/12 03:31:55;;;;;;;6.90;4.25;;;;;;;14.46;68.45;99937.84;4470496;32;33588;-83
2023/10/12 03:34:53;;;;;;;6.55;4.00;;;;;;;14.54;67.83;99936.84;4468528;32;33869;-81
2023/10/12 03:37:44;;;;;;;7.72;4.30;;;;;;;14.35;68.40;99928.56;4462516;32;34300;-82
2023/10/12 03:43:09;;;;;;;6.10;3.97;;;;;;;14.17;69.36;99928.12;4469688;32;33737;-83
2023/10/12 03:45:49;;;;;;;8.27;3.90;;;;;;;14.15;69.32;99929.91;4466262;32;34679;-81
2023/10/12 03:48:47;;;;;;;8.07;4.40;;;;;;;14.04;69.53;99921.50;4473194;32;33350;-81
2023/10/12 03:51:33;;;;;;;11.52;5.45;;;;;;;14.14;69.31;99914.31;4462302;32;33422;-82
2023/10/12 03:54:11;;;;;;;8.75;4.72;;;;;;;14.10;69.68;99916.13;4475771;32;33543;-82
2023/10/12 03:56:40;;;;;;;8.68;4.70;;;;;;;14.15;69.20;99916.87;4467093;32;33943;-81
2023/10/12 03:59:12;;;;;;;8.75;5.03;;;;;;;14.17;69.52;99912.47;4460088;32;33965;-82
2023/10/12 04:01:41;;;;;;;10.32;4.78;;;;;;;14.01;69.96;99913.72;4460482;32;32962;-82
2023/10/12 04:04:20;;;;;;;9.90;4.47;;;;;;;14.12;69.42;99914.34;4459872;32;33742;-81
2023/10/12 04:07:16;;;;;;;13.00;4.68;;;;;;;14.06;69.63;99923.19;4461199;32;33673;-81
2023/10/12 04:09:51;;;;;;;7.30;3.75;;;;;;;14.17;69.40;99922.91;4460177;32;34300;-82
2023/10/12 04:12:35;;;;;;;8.05;4.07;;;;;;;14.09;69.54;99920.50;4466208;32;33333;-82
2023/10/12 04:15:26;;;;;;;10.63;4.32;;;;;;;13.94;70.25;99917.37;4464840;32;34955;-83
2023/10/12 04:17:59;;;;;;;7.85;4.65;;;;;;;13.99;70.05;99915.50;4460990;32;33892;-83
2023/10/12 04:20:29;;;;;;;8.30;4.40;;;;;;;14.07;69.63;99914.44;4460826;32;33896;-82
2023/10/12 04:23:44;;;;;;;7.75;4.53;;;;;;;14.07;69.60;99918.81;4459813;32;32905;-82
2023/10/12 04:26:34;;;;;;;8.05;4.12;;;;;;;14.09;69.61;99920.50;4460562;32;33394;-82
2023/10/12 04:29:10;;;;;;;9.07;4.93;;;;;;;14.06;69.48;99917.97;4458939;32;33879;-82
2023/10/12 04:31:51;;;;;;;7.35;4.15;;;;;;;14.16;69.13;99912.50;4461055;32;33775;-80
2023/10/12 04:34:26;;;;;;;8.68;4.65;;;;;;;14.11;69.08;99915.25;4459843;32;33386;-80
2023/10/12 04:37:07;;;;;;;6.57;3.90;;;;;;;13.90;69.79;99914.00;4466814;32;33366;-81
2023/10/12 04:39:37;;;;;;;6.80;3.60;;;;;;;13.95;69.45;99906.91;4465414;32;35064;-83
2023/10/12 04:42:20;;;;;;;8.07;4.25;;;;;;;13.96;69.39;99905.16;4459935;32;33852;-81
2023/10/12 04:45:03;;;;;;;10.93;4.25;;;;;;;13.96;69.21;99913.00;4460015;32;33146;-80
2023/10/12 04:47:35;;;;;;;6.43;3.55;;;;;;;13.76;69.78;99903.03;4460030;32;34342;-83
2023/10/12 04:50:07;;;;;;;6.95;3.83;;;;;;;13.88;69.26;99906.19;4460100;32;33219;-82
2023/10/12 04:52:40;;;;;;;8.10;3.85;;;;;;;13.83;69.61;99909.81;4459376;32;33292;-82
2023/10/12 04:55:20;;;;;;;9.55;4.28;;;;;;;13.83;69.59;99908.06;4465165;32;34136;-81
2023/10/12 04:58:09;;;;;;;6.97;3.75;;;;;;;13.84;69.63;99916.72;4462342;32;34559;-82
2023/10/12 05:00:59;;;;;;;6.97;3.58;;;;;;;13.94;69.07;99913.03;4459731;32;33984;-82
2023/10/12 05:03:36;;;;;;;15.50;4.07;;;;;;;13.95;69.07;99924.31;4459882;32;32977;-80
2023/10/12 05:06:04;;;;;;;6.47;3.83;;;;;;;13.92;69.29;99926.97;4459487;32;33270;-81
2023/10/12 05:08:35;;;;;;;10.05;4.20;;;;;;;13.87;69.72;99932.34;4459612;32;33658;-80
2023/10/12 05:11:10;;;;;;;6.30;3.53;;;;;;;13.91;69.45;99927.88;4459181;32;33671;-81
2023/10/12 05:13:43;;;;;;;6.37;3.65;;;;;;;13.88;69.91;99932.28;4468208;32;34226;-81
2023/10/12 05:16:16;;;;;;;7.60;3.70;;;;;;;13.85;69.88;99931.50;4463818;32;33146;-81
2023/10/12 05:18:47;;;;;;;;;;;;;;;13.86;69.83;99931.44;4459184;32;34642;-82
2023/10/12 05:21:16;;;;;;;6.85;3.40;;;;;;;13.88;70.03;99939.25;4460643;32;34085;-82
2023/10/12 05:23:45;;;;;;;6.25;3.25;;;;;;;13.94;69.70;99935.62;4459355;32;33776;-81
2023/10/12 05:26:14;;;;;;;7.75;4.20;;;;;;;14.03;69.23;99938.03;4461592;32;34619;-80
2023/10/12 05:28:58;;;;;;;9.35;3.75;;;;;;;14.00;69.66;99925.06;4464450;32;33678;-80
2023/10/12 05:31:39;;;;;;;7.22;3.28;;;;;;;13.94;70.08;99928.69;4461165;32;34358;-80
2023/10/12 05:34:32;;;;;;;6.97;4.50;;;;;;;14.01;69.84;99924.16;4462157;32;33734;-82
2023/10/12 05:37:07;;;;;;;6.70;3.47;;;;;;;13.92;70.41;99924.37;4460222;32;33671;-81
2023/10/12 05:39:46;;;;;;;6.00;3.42;;;;;;;14.02;70.09;99918.94;4458742;32;33831;-82
2023/10/12 05:42:15;;;;;;;7.10;3.67;;;;;;;13.90;70.87;99923.59;4459475;32;33499;-82
2023/10/12 05:44:44;;;;;;;5.43;3.12;;;;;;;14.15;70.23;99929.91;4459930;32;33995;-81
2023/10/12 05:47:13;;;;;;;5.45;3.50;;;;;;;13.85;71.63;99931.50;4465691;32;33991;-81
2023/10/12 05:49:45;;;;;;;7.95;3.80;;;;;;;13.87;71.97;99934.94;4460460;32;33901;-81
2023/10/12 05:52:13;;;;;;;8.20;3.72;;;;;;;14.01;71.77;99930.25;4459544;32;34828;-82
2023/10/12 05:54:43;;;;;;;7.82;3.62;;;;;;;14.07;71.59;99937.06;4462206;32;33646;-81
2023/10/12 05:57:19;;;;;;;5.82;3.70;;;;;;;13.87;72.85;99932.34;4458785;32;33269;-82
2023/10/12 05:59:49;;;;;;;6.93;3.70;;;;;;;14.27;71.25;99929.62;4461315;32;34282;-80
2023/10/12 06:02:18;;;;;;;7.75;3.17;;;;;;;14.25;71.70;99930.56;4464421;32;34920;-83
2023/10/12 06:04:48;;;;;;;5.53;3.62;;;;;;;14.24;72.15;99934.06;4460739;32;33865;-82
2023/10/12 06:07:17;;;;;;;8.60;4.33;;;;;;;14.03;73.01;99933.66;4458800;32;32181;-80
2023/10/12 06:09:52;;;;;;;7.07;3.53;;;;;;;14.48;71.25;99928.22;4462439;32;34208;-81
2023/10/12 06:12:24;;;;;;;7.60;3.75;;;;;;;14.40;71.59;99940.63;4460847;32;34632;-81
2023/10/12 06:14:54;;;;;;;7.07;3.87;;;;;;;14.34;72.39;99945.13;4467370;32;33589;-80
2023/10/12 06:17:30;;;;;;;8.15;3.67;;;;;;;14.06;73.61;99945.78;4462078;32;34069;-82
2023/10/12 06:20:10;;;;;;;7.72;4.05;;;;;;;14.30;72.69;99946.94;4461527;32;33316;-82
2023/10/12 06:22:39;;;;;;;6.35;3.45;;;;;;;14.39;72.69;99944.12;4459996;32;34307;-83
2023/10/12 06:25:17;;;;;;;7.80;3.62;;;;;;;14.58;71.72;99941.09;4461887;32;32870;-82
2023/10/12 06:27:47;;;;;;;5.80;2.83;;;;;;;14.19;72.70;99954.19;4460924;32;33497;-82
2023/10/12 06:30:23;;;;;;;7.75;4.30;;;;;;;14.60;71.43;99952.34;4471622;32;33825;-80
2023/10/12 06:32:52;;;;;;;4.80;2.87;;;;;;;14.53;71.65;99956.84;4460656;32;33754;-80
2023/10/12 06:35:33;;;;;;;10.40;3.55;;;;;;;14.68;71.16;99953.84;4459180;32;33756;-82
2023/10/12 06:38:23;;;;;;;11.10;4.07;;;;;;;14.50;71.83;99952.56;4461027;32;33476;-81
2023/10/12 06:41:00;;;;;;;7.70;3.95;;;;;;;14.08;73.46;99964.88;4461549;32;34367;-83
2023/10/12 06:46:17;;;;;;;8.40;3.10;;;;;;;14.86;70.10;99962.09;4462411;32;34496;-80
2023/10/12 06:48:47;;;;;;;6.20;3.10;;;;;;;14.50;71.66;99951.69;4465961;32;33697;-80
2023/10/12 06:51:22;;;;;;;7.50;3.40;;;;;;;14.96;69.69;99955.75;4460966;32;34041;-81
2023/10/12 06:54:06;;;;;;;5.60;2.87;;;;;;;14.55;71.31;99949.00;4461495;32;32909;-83
2023/10/12 06:56:39;;;;;;;4.85;2.83;;;;;;;14.64;70.98;99949.63;4460744;32;34050;-80
2023/10/12 06:59:08;;;;;;;7.87;3.80;;;;;;;14.91;70.30;99947.19;4462167;32;33321;-82
2023/10/12 07:01:53;;;;;;;7.03;3.10;;;;;;;14.67;71.09;99948.69;4460613;32;33468;-83
2023/10/12 07:04:27;;;;;;;6.97;3.30;;;;;;;15.06;69.68;99953.75;4460853;32;32425;-81
2023/10/12 07:07:00;;;;;;;6.05;3.08;;;;;;;15.06;69.67;99951.12;4466206;32;33795;-82
2023/10/12 07:09:39;;;;;;;5.70;3.05;;;;;;;15.01;69.79;99953.03;4460422;32;33007;-81
2023/10/12 07:12:12;;;;;;;7.32;3.92;;;;;;;15.16;69.46;99957.81;4458822;32;34081;-80
2023/10/12 07:14:46;;;;;;;7.15;3.53;;;;;;;15.53;67.75;99970.69;4460800;32;34378;-82
2023/10/12 07:17:16;;;;;;;7.32;3.30;;;;;;;15.31;68.45;99967.84;4460546;32;34161;-80
2023/10/12 07:19:49;;;;;;;6.05;3.00;;;;;;;15.50;67.62;99962.94;4459581;32;33629;-82
2023/10/12 07:22:20;;;;;;;6.72;3.50;;;;;;;15.48;68.01;99963.87;4466320;32;33938;-82
2023/10/12 07:24:53;;;;;;;5.10;2.83;;;;;;;15.68;67.18;99960.69;4453339;32;220409;-83
2023/10/12 07:27:24;;;;;;;8.25;3.37;;;;;;;15.78;66.87;99956.94;4459441;32;34554;-83
2023/10/12 07:30:08;;;;;;;6.55;3.33;;;;;;;15.66;67.53;99958.13;4460299;32;34700;-82
2023/10/12 07:32:38;;;;;;;8.68;3.15;;;;;;;15.50;67.92;99956.88;4460254;32;33894;-81
2023/10/12 07:35:18;;;;;;;;;;;;;;;15.98;66.00;99953.72;4461743;32;33534;-81
2023/10/12 07:37:48;;;;;;;6.93;2.95;;;;;;;15.87;66.68;99947.94;4465670;32;34785;-81
2023/10/12 07:40:19;;;;;;;4.57;2.67;;;;;;;16.17;65.10;99949.59;4462180;32;33779;-82
2023/10/12 07:42:48;;;;;;;6.62;3.33;;;;;;;16.07;65.30;99950.81;4461353;32;32542;-83
2023/10/12 07:45:17;;;;;;;6.87;3.10;;;;;;;15.81;66.62;99953.38;4460452;32;33920;-81
2023/10/12 07:47:58;;;;;;;7.10;3.42;;;;;;;15.85;66.58;99936.66;4460668;32;33699;-81
2023/10/12 07:50:37;;;;;;;8.55;3.97;;;;;;;16.09;66.21;99938.53;4463414;32;33280;-82
2023/10/12 07:53:21;;;;;;;9.15;6.28;;;;;;;16.13;65.74;99940.13;4465721;32;33744;-81
2023/10/12 07:55:56;;;;;;;6.93;4.30;;;;;;;16.08;65.77;99944.66;4467321;32;33898;-82
2023/10/12 07:58:29;;;;;;;5.37;3.10;;;;;;;16.14;65.50;99939.25;4461737;32;32778;-82
2023/10/12 08:01:19;;;;;;;8.13;3.47;;;;;;;16.20;65.36;99946.88;4461606;32;33994;-82
2023/10/12 08:03:52;;;;;;;5.70;3.37;;;;;;;16.62;63.87;99945.50;4459563;32;34925;-83
2023/10/12 08:06:28;;;;;;;5.85;3.58;;;;;;;16.36;64.81;99952.47;4461195;32;33732;-80
2023/10/12 08:09:04;;;;;;;5.57;3.78;;;;;;;16.48;64.71;99938.13;4461221;32;34463;-82
2023/10/12 08:11:34;;;;;;;7.82;4.93;;;;;;;16.49;64.74;99934.59;4466379;32;33708;-83
2023/10/12 08:14:19;;;;;;;6.70;3.28;;;;;;;16.55;64.33;99938.75;4460428;32;33093;-83
2023/10/12 08:17:25;;;;;;;5.45;3.03;;;;;;;16.75;64.23;99938.94;4460820;32;33866;-81
2023/10/12 08:19:42;;;;;;;5.43;2.75;;;;;;;16.50;64.60;99933.66;4460218;32;34179;-82
2023/10/12 08:22:17;;;;;;;5.60;3.20;;;;;;;16.84;63.50;99924.69;4461719;32;33071;-81
2023/10/12 08:24:49;;;;;;;6.03;3.00;;;;;;;16.79;64.15;99921.38;4460854;32;32680;-81
2023/10/12 08:27:19;;;;;;;5.72;3.05;;;;;;;16.73;63.63;99918.97;4460114;32;33993;-81
2023/10/12 08:32:34;;;;;;;7.80;4.05;;;;;;;17.13;62.81;99926.28;4457914;32;33154;-82
2023/10/12 08:35:32;;;;;;;5.30;3.30;;;;;;;17.15;63.03;99916.59;4462473;32;33195;-81
2023/10/12 08:38:12;;;;;;;6.15;3.17;;;;;;;17.05;63.27;99918.69;4462745;32;34162;-83
2023/10/12 08:43:48;;;;;;;7.90;3.83;;;;;;;17.59;62.12;99921.94;4409072;32;33838;-82
2023/10/12 08:46:41;;;;;;;6.45;3.12;;;;;;;17.65;61.16;99923.47;4409809;32;33431;-81
2023/10/12 08:52:05;;;;;;;5.93;3.30;;;;;;;17.58;61.01;99922.84;4407586;32;34380;-83
2023/10/12 08:54:37;;;;;;;6.50;3.42;;;;;;;17.96;59.46;99915.28;4412934;32;33127;-81
2023/10/12 08:57:17;;;;;;;6.70;3.12;;;;;;;17.90;60.58;99916.41;4406625;32;33331;-83
2023/10/12 09:00:01;;;;;;;7.85;3.25;;;;;;;17.92;60.44;99911.91;4408601;32;33425;-83
2023/10/12 09:02:31;;;;;;;5.35;3.20;;;;;;;18.00;60.50;99908.13;4408044;32;33749;-82
2023/10/12 09:05:00;;;;;;;6.97;2.78;;;;;;;18.19;60.16;99913.50;4408160;32;33730;-83
2023/10/12 09:07:40;;;;;;;13.10;3.58;;;;;;;18.40;59.39;99915.22;4414453;32;33530;-83
2023/10/12 09:10:33;;;;;;;7.22;4.00;;;;;;;18.61;58.76;99910.00;4409282;32;33364;-81
2023/10/12 09:13:01;;;;;;;6.93;3.65;;;;;;;18.37;59.45;99910.13;4408192;32;33442;-83
2023/10/12 09:15:38;;;;;;;8.02;3.85;;;;;;;18.35;59.40;99904.06;4407319;32;32892;-82
2023/10/12 09:18:09;;;;;;;7.62;3.45;;;;;;;18.56;59.37;99912.81;4408754;32;33557;-82
2023/10/12 09:20:41;;;;;;;5.95;3.47;;;;;;;18.68;58.54;99911.44;4457653;32;34468;-82
2023/10/12 09:23:13;;;;;;;6.87;3.62;;;;;;;18.67;58.52;99909.72;4457222;32;33854;-83
2023/10/12 09:28:42;;;;;;;8.82;2.85;;;;;;;18.97;57.61;99903.16;4460995;32;34509;-81
2023/10/12 09:31:14;;;;;;;6.07;3.03;;;;;;;19.00;58.09;99907.44;4458268;32;34058;-82
2023/10/12 09:33:54;;;;;;;5.90;3.10;;;;;;;19.37;56.80;99906.62;4462794;32;33513;-81
2023/10/12 09:36:22;;;;;;;5.22;2.72;;;;;;;19.29;57.06;99905.28;4463286;32;33214;-81
2023/10/12 09:38:55;;;;;;;5.53;2.60;;;;;;;19.29;55.93;99905.28;4459551;32;33490;-83
2023/10/12 09:41:28;;;;;;;5.72;2.80;;;;;;;19.46;56.41;99900.09;4460185;32;33844;-83
2023/10/12 09:44:00;;;;;;;4.40;2.75;;;;;;;19.31;57.12;99899.03;4459901;32;34227;-82
2023/10/12 09:46:31;;;;;;;14.98;3.25;;;;;;;19.64;55.76;99890.47;4464759;32;33365;-83
2023/10/12 09:49:06;;;;;;;5.15;3.05;;;;;;;19.72;55.92;99898.91;4458048;32;34511;-83
2023/10/12 09:51:36;;;;;;;6.18;2.60;;;;;;;19.78;55.42;99892.47;4457941;32;34515;-82
2023/10/12 09:54:15;;;;;;;4.80;2.87;;;;;;;19.88;55.67;99891.09;4457733;32;33030;-81
2023/10/12 09:56:46;;;;;;;5.05;2.33;;;;;;;19.83;56.29;99890.47;4459221;32;33605;-83
2023/10/12 09:59:19;;;;;;;4.53;2.62;;;;;;;20.04;55.30;99883.31;4463074;32;34271;-82
2023/10/12 10:01:50;;;;;;;3.97;2.15;;;;;;;20.22;55.06;99879.78;4458465;32;34394;-82
2023/10/12 10:04:29;;;;;;;4.72;2.65;;;;;;;20.52;54.36;99886.22;4459295;32;33532;-84
2023/10/12 10:07:18;;;;;;;6.85;3.42;;;;;;;20.49;55.03;99888.97;4459484;32;35221;-83
2023/10/12 10:09:49;;;;;;;4.40;1.90;;;;;;;20.52;54.73;99887.06;4459799;32;33399;-82
2023/10/12 10:12:20;;;;;;;5.72;2.72;;;;;;;20.53;54.58;99874.72;4465159;32;34535;-82
2023/10/12 10:14:53;;;;;;;4.28;2.35;;;;;;;20.74;53.71;99878.91;4463043;32;33717;-82
2023/10/12 10:17:26;;;;;;;6.15;2.33;;;;;;;20.81;53.67;99875.03;4459427;32;33792;-82
2023/10/12 10:20:33;;;;;;;4.85;2.20;;;;;;;20.98;52.84;99876.78;4458878;32;33645;-83
2023/10/12 10:23:01;;;;;;;6.03;2.58;;;;;;;21.06;53.46;99871.09;4462978;32;33537;-82
2023/10/12 10:25:35;;;;;;;4.25;2.05;;;;;;;20.95;53.60;99868.16;4459315;32;33593;-81
2023/10/12 10:28:09;;;;;;;4.93;2.53;;;;;;;21.22;53.22;99866.69;4464402;32;33271;-83
2023/10/12 10:30:41;;;;;;;3.75;1.90;;;;;;;21.45;51.75;99864.59;4458295;32;33948;-81
2023/10/12 10:33:13;;;;;;;5.97;2.65;;;;;;;21.12;52.54;99869.91;4457951;32;35199;-83
2023/10/12 10:36:00;;;;;;;10.73;2.37;;;;;;;21.38;52.39;99871.97;4458033;32;33875;-82
2023/10/12 10:38:33;;;;;;;4.70;2.50;;;;;;;21.45;52.25;99861.97;4457800;32;34283;-82
2023/10/12 10:41:07;;;;;;;5.53;2.30;;;;;;;21.35;52.46;99856.31;4463556;32;34153;-83
2023/10/12 10:43:38;;;;;;;12.05;3.28;;;;;;;21.32;53.13;99853.84;4459916;32;34806;-83
2023/10/12 10:46:10;;;;;;;4.95;2.55;;;;;;;21.66;53.15;99852.84;4460330;32;34133;-83
2023/10/12 10:48:40;;;;;;;5.00;2.58;;;;;;;21.73;52.53;99843.63;4458015;32;32967;-81
2023/10/12 10:51:18;;;;;;;5.22;2.15;;;;;;;21.84;52.11;99848.31;4459834;32;33770;-83
2023/10/12 10:53:52;;;;;;;6.05;2.42;;;;;;;21.91;52.22;99846.16;4464690;32;33709;-83
2023/10/12 10:56:35;;;;;;;7.05;2.67;;;;;;;22.14;51.13;99850.13;4458211;32;33382;-82
2023/10/12 10:59:06;;;;;;;4.80;2.30;;;;;;;21.98;51.38;99844.88;4452260;32;31644;-84
2023/10/12 11:01:40;;;;;;;7.03;3.20;;;;;;;22.04;51.75;99844.53;4464726;32;34204;-82
2023/10/12 11:04:18;;;;;;;6.18;2.67;;;;;;;22.21;51.55;99846.22;4457233;32;33637;-83
2023/10/12 11:06:53;;;;;;;4.70;2.35;;;;;;;22.20;51.96;99838.31;4463382;32;33651;-82
2023/10/12 11:09:31;;;;;;;4.15;2.33;;;;;;;22.41;52.20;99838.88;4457869;32;32932;-83
2023/10/12 11:11:59;;;;;;;4.90;2.40;;;;;;;22.44;51.96;99836.06;4458632;32;33780;-82
2023/10/12 11:14:31;;;;;;;3.47;1.87;;;;;;;22.56;51.41;99837.97;4459670;32;34702;-83
2023/10/12 11:17:04;;;;;;;3.85;2.62;;;;;;;22.52;51.39;99833.78;4458658;32;33646;-83
2023/10/12 11:19:34;;;;;;;8.65;2.97;;;;;;;22.59;50.11;99829.81;4464178;32;34195;-83
2023/10/12 11:22:03;;;;;;;5.55;2.37;;;;;;;22.71;50.81;99834.41;4459362;32;33305;-83
2023/10/12 11:24:35;;;;;;;5.82;2.40;;;;;;;22.73;50.74;99832.47;4459001;32;33754;-82
2023/10/12 11:27:07;;;;;;;4.82;2.37;;;;;;;22.79;50.54;99832.13;4459191;32;34444;-83
2023/10/12 11:29:50;;;;;;;5.53;3.17;;;;;;;22.68;51.54;99823.13;4461195;32;33732;-82
2023/10/12 11:32:20;;;;;;;5.62;2.87;;;;;;;22.73;51.06;99816.63;4464669;32;33624;-82
2023/10/12 11:34:52;;;;;;;4.95;2.42;;;;;;;22.76;51.20;99818.22;4458905;32;33095;-82
2023/10/12 11:37:23;;;;;;;4.22;2.30;;;;;;;22.99;50.97;99809.75;4459753;32;34620;-82
2023/10/12 11:39:53;;;;;;;;;;;;;;;23.02;51.34;99815.78;4459223;32;34261;-83
2023/10/12 11:42:22;;;;;;;4.60;2.67;;;;;;;23.25;49.31;99801.97;4464459;32;33167;-83
2023/10/12 11:44:53;;;;;;;4.43;2.42;;;;;;;23.13;50.26;99808.88;4464681;32;34654;-83
2023/10/12 11:47:38;;;;;;;3.60;1.85;;;;;;;23.05;50.53;99808.53;4459073;32;33449;-82
2023/10/12 11:50:13;;;;;;;5.95;2.15;;;;;;;23.20;49.95;99802.25;4458760;32;33705;-82
2023/10/12 11:52:50;;;;;;;6.62;2.62;;;;;;;23.28;50.12;99796.47;4458816;32;34192;-83
2023/10/12 11:55:20;;;;;;;2.87;1.90;;;;;;;23.16;51.14;99799.91;4462419;32;33936;-81
2023/10/12 11:57:54;;;;;;;4.45;2.62;;;;;;;23.18;50.69;99792.72;4464122;32;33181;-82
2023/10/12 12:00:29;;;;;;;4.47;2.08;;;;;;;23.38;49.99;99794.06;4459026;32;33379;-82
2023/10/12 12:03:02;;;;;;;5.72;2.42;;;;;;;23.58;49.72;99784.81;4458909;32;33642;-82
2023/10/12 12:05:33;;;;;;;8.95;2.28;;;;;;;23.59;49.84;99787.37;4459072;32;33537;-82
2023/10/12 12:08:06;;;;;;;3.58;1.87;;;;;;;23.70;50.18;99785.81;4464948;32;34537;-83
2023/10/12 12:10:44;;;;;;;8.18;3.55;;;;;;;23.73;49.12;99782.97;4464109;32;32853;-83
2023/10/12 12:13:16;;;;;;;5.05;2.17;;;;;;;23.90;48.50;99780.09;4459698;32;34346;-82
2023/10/12 12:15:45;;;;;;;4.55;1.87;;;;;;;23.87;47.97;99779.44;4460706;32;33894;-82
2023/10/12 12:18:18;;;;;;;3.53;1.48;;;;;;;23.84;48.96;99780.47;4459506;32;34721;-83
2023/10/12 12:20:48;;;;;;;3.28;1.58;;;;;;;23.97;48.94;99778.72;4463694;32;34121;-81
2023/10/12 12:23:17;;;;;;;7.70;2.47;;;;;;;23.96;48.91;99771.72;4459742;32;33317;-83
2023/10/12 12:25:46;;;;;;;3.20;1.83;;;;;;;24.17;48.40;99774.72;4457984;32;33507;-79
2023/10/12 12:28:15;;;;;;;6.68;2.00;;;;;;;24.12;48.39;99770.69;4458338;32;34285;-79